Dagomys, Russia
Current Conditions -  °F | °C
As of 10:30 AM on Saturday 29 Nov 2014 (Local Time) from URSS Reporting Station
Broken Clouds Broken Clouds  
Wind Chill: 50°   Ceiling: 13000
Heat Index: 50°   Visibility: 6mi
Dew Point: 39°   Wind: 7mph
Humidity: 66%   Direction: 70°ENE
Pressure: 30.3"   Gusts: NA
Location:  43.67°N, 39.63°E
Report Text: URSS 290730Z 07003MPS 9999 BKN130 10/04 Q1026 NOSIG RMKR02/04003MPS QFE768 06000070 02000070
Loading
Personal Weather Stations






























Interactive Weather Map New forecast layout! Learn more

10-Day Weather Forecast

Advertisements
Track Severe Weather on mobile